createdAt,value
2023-05-03T02:30:19.115Z,0.00
2023-05-03T02:31:19.092Z,0.00
2023-05-03T02:32:19.129Z,0.00
2023-05-03T02:33:19.387Z,0.00
2023-05-03T02:34:18.947Z,0.00
2023-05-03T02:35:18.922Z,0.00
2023-05-03T02:36:18.915Z,0.00
2023-05-03T02:37:18.900Z,0.00
2023-05-03T02:38:18.868Z,0.00
2023-05-03T02:39:18.849Z,0.00
2023-05-03T02:40:18.844Z,0.00
2023-05-03T02:41:18.848Z,0.00
2023-05-03T02:42:18.823Z,0.00
2023-05-03T02:43:18.820Z,0.00
2023-05-03T02:44:18.782Z,0.00
2023-05-03T02:45:18.742Z,0.00
2023-05-03T02:46:18.757Z,0.00
2023-05-03T02:47:18.715Z,0.00
2023-05-03T02:48:18.752Z,0.00
2023-05-03T02:49:18.697Z,0.00
2023-05-03T02:50:18.648Z,0.00
2023-05-03T02:51:18.633Z,0.00
2023-05-03T02:52:18.617Z,0.00
2023-05-03T02:53:18.592Z,0.00
2023-05-03T02:54:18.579Z,0.00
2023-05-03T02:55:18.562Z,0.00
2023-05-03T02:56:18.564Z,0.00
2023-05-03T02:57:18.521Z,0.00
2023-05-03T02:58:18.501Z,0.00
2023-05-03T02:59:18.489Z,0.00
2023-05-03T03:00:18.473Z,0.00
2023-05-03T03:01:18.542Z,0.00
2023-05-03T03:02:18.447Z,0.00
2023-05-03T03:03:18.464Z,0.00
2023-05-03T03:04:18.392Z,0.00
2023-05-03T03:05:18.373Z,0.00
2023-05-03T03:06:18.406Z,0.00
2023-05-03T03:07:18.351Z,0.00
2023-05-03T03:08:18.340Z,0.00
2023-05-03T03:09:18.366Z,0.00
2023-05-03T03:10:18.305Z,0.00
2023-05-03T03:11:18.285Z,0.00
2023-05-03T03:12:18.258Z,0.00
2023-05-03T03:13:18.325Z,0.00
2023-05-03T03:14:18.210Z,0.00
2023-05-03T03:15:18.228Z,0.00
2023-05-03T03:16:18.253Z,0.00
2023-05-03T03:17:18.162Z,0.00
2023-05-03T03:18:19.560Z,0.00
2023-05-03T03:19:18.125Z,0.00
2023-05-03T03:20:18.107Z,0.00
2023-05-03T03:21:18.102Z,0.00
2023-05-03T03:22:18.066Z,0.00
2023-05-03T03:23:18.054Z,0.00
2023-05-03T03:24:18.032Z,0.00
2023-05-03T03:25:18.021Z,0.00
2023-05-03T03:26:17.996Z,0.00
2023-05-03T03:27:17.986Z,0.00
2023-05-03T03:28:17.959Z,0.00
2023-05-03T03:29:17.941Z,0.00
2023-05-03T03:30:17.918Z,0.00
2023-05-03T03:31:17.915Z,0.00
2023-05-03T03:32:17.882Z,0.00
2023-05-03T03:33:17.963Z,0.00
2023-05-03T03:34:17.901Z,0.00
2023-05-03T03:35:17.840Z,0.00
2023-05-03T03:36:17.813Z,0.00
2023-05-03T03:37:17.803Z,0.00
2023-05-03T03:38:17.770Z,0.00
2023-05-03T03:39:17.757Z,0.00
2023-05-03T03:40:17.739Z,0.00
2023-05-03T03:41:17.738Z,0.00
2023-05-03T03:42:19.041Z,0.00
2023-05-03T03:43:17.685Z,0.00
2023-05-03T03:44:17.670Z,0.00
2023-05-03T03:45:17.648Z,0.00
2023-05-03T03:46:17.765Z,0.00
2023-05-03T03:47:17.758Z,0.00
2023-05-03T03:48:17.726Z,0.00
2023-05-03T03:49:17.593Z,0.00
2023-05-03T03:50:17.567Z,0.00
2023-05-03T03:51:17.549Z,0.00
2023-05-03T03:52:17.522Z,0.00
2023-05-03T03:53:17.513Z,0.00
2023-05-03T03:54:17.482Z,0.00
2023-05-03T03:55:17.473Z,0.00
2023-05-03T03:56:17.511Z,0.00
2023-05-03T03:57:17.431Z,0.00
2023-05-03T03:58:17.428Z,0.00
2023-05-03T03:59:17.392Z,0.00
2023-05-03T04:00:17.375Z,0.00
2023-05-03T04:01:17.357Z,0.00
2023-05-03T04:02:17.406Z,0.00
2023-05-03T04:03:17.410Z,0.00
2023-05-03T04:04:17.332Z,0.00
2023-05-03T04:05:17.289Z,0.00
2023-05-03T04:06:17.278Z,0.00
2023-05-03T04:07:17.249Z,0.00
2023-05-03T04:08:17.224Z,0.00
2023-05-03T04:09:17.211Z,0.00
2023-05-03T04:10:17.200Z,0.00
2023-05-03T04:11:17.219Z,5.63
2023-05-03T04:12:17.147Z,5.63
2023-05-03T04:13:17.133Z,5.63
2023-05-03T04:14:17.120Z,5.63
2023-05-03T04:15:17.108Z,5.63
2023-05-03T04:16:17.157Z,5.63
2023-05-03T04:17:17.067Z,5.63
2023-05-03T04:18:17.039Z,5.63
2023-05-03T04:19:17.025Z,5.63
2023-05-03T04:20:17.002Z,5.63
2023-05-03T04:21:16.997Z,5.63
2023-05-03T04:22:16.980Z,5.63
2023-05-03T04:23:16.954Z,5.63
2023-05-03T04:24:16.932Z,5.63
2023-05-03T04:25:16.925Z,5.63
2023-05-03T04:26:30.220Z,5.63
2023-05-03T04:27:16.882Z,11.25
2023-05-03T04:28:16.857Z,11.25
2023-05-03T04:29:16.846Z,11.25
2023-05-03T04:30:16.815Z,11.25
2023-05-03T04:31:16.842Z,11.25
2023-05-03T04:32:16.789Z,11.25
2023-05-03T04:33:16.761Z,11.25
2023-05-03T04:34:16.749Z,11.25
2023-05-03T04:35:16.726Z,11.25
2023-05-03T04:36:16.712Z,11.25
2023-05-03T04:37:16.689Z,11.25
2023-05-03T04:38:16.714Z,11.25
2023-05-03T04:39:16.659Z,11.25
2023-05-03T04:40:16.644Z,11.25
2023-05-03T04:41:16.618Z,16.88
2023-05-03T04:42:16.626Z,16.88
2023-05-03T04:43:16.628Z,16.88
2023-05-03T04:44:16.582Z,16.88
2023-05-03T04:45:16.562Z,16.88
2023-05-03T04:46:16.530Z,16.88
2023-05-03T04:47:16.505Z,16.88
2023-05-03T04:48:16.505Z,16.88
2023-05-03T04:49:16.474Z,16.88
2023-05-03T04:50:16.456Z,16.88
2023-05-03T04:51:16.447Z,16.88
2023-05-03T04:52:16.432Z,16.88
2023-05-03T04:53:16.444Z,16.88
2023-05-03T04:54:16.380Z,16.88
2023-05-03T04:55:16.364Z,16.88
2023-05-03T04:56:16.336Z,22.50
2023-05-03T04:57:16.328Z,22.50
2023-05-03T04:58:16.310Z,22.50
2023-05-03T04:59:16.293Z,22.50
2023-05-03T05:00:16.275Z,22.50
2023-05-03T05:01:16.285Z,22.50
2023-05-03T05:02:16.320Z,22.50
2023-05-03T05:03:16.380Z,22.50
2023-05-03T05:04:16.207Z,22.50
2023-05-03T05:05:16.956Z,22.50
2023-05-03T05:06:16.267Z,22.50
2023-05-03T05:07:16.222Z,28.13
2023-05-03T05:08:16.139Z,28.13
2023-05-03T05:09:16.102Z,28.13
2023-05-03T05:10:16.095Z,28.13
2023-05-03T05:11:16.076Z,28.13
2023-05-03T05:12:16.056Z,28.13
2023-05-03T05:13:16.075Z,33.75
2023-05-03T05:14:16.025Z,33.75
2023-05-03T05:15:15.996Z,33.75
2023-05-03T05:16:16.050Z,33.75
2023-05-03T05:17:15.990Z,33.75
2023-05-03T05:18:15.983Z,39.38
2023-05-03T05:19:15.924Z,39.38
2023-05-03T05:20:17.082Z,39.38
2023-05-03T05:21:15.894Z,39.38
2023-05-03T05:22:15.867Z,39.38
2023-05-03T05:23:15.898Z,39.38
2023-05-03T05:24:15.851Z,39.38
2023-05-03T05:25:15.841Z,39.38
2023-05-03T05:26:15.886Z,45.00
2023-05-03T05:27:15.802Z,45.00
2023-05-03T05:28:15.755Z,45.00
2023-05-03T05:29:15.772Z,45.00
2023-05-03T05:30:15.723Z,45.00
2023-05-03T05:31:15.754Z,45.00
2023-05-03T05:32:15.712Z,50.63
2023-05-03T05:33:17.542Z,50.63
2023-05-03T05:34:15.651Z,50.63
2023-05-03T05:35:15.648Z,50.63
2023-05-03T05:36:15.627Z,56.25
2023-05-03T08:51:09.372Z,568.13
2023-05-03T08:52:09.327Z,568.13
2023-05-03T08:54:14.066Z,573.75
2023-05-03T08:55:14.041Z,579.38
2023-05-03T08:57:18.754Z,585.00
2023-05-03T08:58:18.748Z,579.38
2023-05-03T09:00:23.448Z,579.38
2023-05-03T09:01:23.501Z,585.00
2023-05-03T09:03:28.244Z,590.63
2023-05-03T09:04:28.233Z,596.25
2023-05-03T09:06:32.928Z,585.00
2023-05-03T09:07:32.844Z,613.13
2023-05-03T09:09:37.552Z,618.75
2023-05-03T09:10:37.542Z,601.88
2023-05-03T09:12:42.273Z,635.63
2023-05-03T09:13:42.244Z,646.88
2023-05-03T09:15:46.956Z,652.50
2023-05-03T09:16:47.240Z,658.13
2023-05-03T09:18:51.685Z,669.38
2023-05-03T09:19:51.673Z,669.38
2023-05-03T09:21:56.392Z,686.25
2023-05-03T09:22:56.376Z,697.50
2023-05-03T09:25:01.081Z,714.38
2023-05-03T09:26:01.091Z,720.00
2023-05-03T09:27:54.724Z,731.25
2023-05-03T09:28:54.713Z,736.88
2023-05-03T09:30:59.468Z,849.38
2023-05-03T09:31:59.522Z,961.88
2023-05-03T09:34:04.165Z,990.00
2023-05-03T09:35:04.347Z,1006.88
2023-05-03T09:36:04.157Z,1006.88
2023-05-03T09:37:04.168Z,1023.75
2023-05-03T09:38:04.173Z,1040.63
2023-05-03T09:39:04.176Z,1040.63
2023-05-03T09:40:04.320Z,1023.75
2023-05-03T09:41:04.165Z,1057.50
2023-05-03T09:42:04.167Z,1074.38
2023-05-03T09:43:04.965Z,1074.38
2023-05-03T09:44:04.174Z,1063.13
2023-05-03T09:45:04.449Z,1057.50
2023-05-03T09:46:04.252Z,1051.88
2023-05-03T09:47:04.188Z,1046.25
2023-05-03T09:48:04.202Z,1051.88
2023-05-03T09:49:04.193Z,1040.63
2023-05-03T09:50:04.193Z,1023.75
2023-05-03T09:51:04.195Z,1040.63
2023-05-03T09:52:04.194Z,1080.00
2023-05-03T09:53:04.211Z,1068.75
2023-05-03T09:54:04.203Z,1074.38
2023-05-03T09:55:04.427Z,1035.00
2023-05-03T09:56:04.212Z,1074.38
2023-05-03T09:57:04.214Z,1057.50
2023-05-03T09:58:04.220Z,1113.75
2023-05-03T09:59:04.225Z,1158.75
2023-05-03T10:00:04.258Z,1063.13
2023-05-03T10:01:04.288Z,1091.25
2023-05-03T10:02:04.239Z,1085.63
2023-05-03T10:03:04.248Z,1108.13
2023-05-03T10:04:04.514Z,1108.13
2023-05-03T10:05:04.452Z,1119.38
2023-05-03T10:06:04.277Z,1046.25
2023-05-03T10:07:04.272Z,1074.38
2023-05-03T10:08:04.261Z,1091.25
2023-05-03T10:09:04.313Z,1119.38
2023-05-03T10:10:04.271Z,1164.38
2023-05-03T10:11:04.296Z,1350.00
2023-05-03T10:12:04.283Z,1417.50
2023-05-03T10:13:04.290Z,1327.50
2023-05-03T10:14:04.286Z,1378.13
2023-05-03T10:15:04.540Z,1338.75
2023-05-03T10:16:04.325Z,1203.75
2023-05-03T10:17:04.310Z,1293.75
2023-05-03T10:18:04.368Z,1321.88
2023-05-03T10:19:04.325Z,1288.13
2023-05-03T10:20:04.325Z,1305.00
2023-05-03T10:21:04.332Z,1321.88
2023-05-03T10:22:04.328Z,1299.38
2023-05-03T10:23:04.364Z,1276.88
2023-05-03T10:24:04.344Z,1260.00
2023-05-03T10:25:04.698Z,1220.63
2023-05-03T10:26:04.354Z,1231.88
2023-05-03T10:27:04.367Z,1220.63
2023-05-03T10:28:04.389Z,1299.38
2023-05-03T10:29:04.365Z,905.63
2023-05-03T10:30:04.673Z,1108.13
2023-05-03T10:31:04.478Z,1147.50
2023-05-03T10:32:04.393Z,1085.63
2023-05-03T10:33:04.445Z,1102.50
2023-05-03T10:34:04.405Z,1192.50
2023-05-03T10:35:04.647Z,1215.00
2023-05-03T10:36:04.413Z,1237.50
2023-05-03T10:37:04.416Z,1299.38
2023-05-03T10:38:04.423Z,1113.75
2023-05-03T10:39:04.461Z,1220.63
2023-05-03T10:40:04.440Z,1248.75
2023-05-03T10:41:04.480Z,1260.00
2023-05-03T10:42:04.460Z,1383.75
2023-05-03T10:43:04.455Z,1366.88
2023-05-03T10:44:04.460Z,1316.25
2023-05-03T10:45:04.707Z,1276.88
2023-05-03T10:46:04.500Z,1243.13
2023-05-03T10:47:04.480Z,1220.63
2023-05-03T10:48:04.538Z,1198.13
2023-05-03T10:49:04.498Z,1254.38
2023-05-03T10:50:04.516Z,1305.00
2023-05-03T10:51:04.504Z,1119.38
2023-05-03T10:52:04.512Z,1231.88
2023-05-03T10:53:04.515Z,1209.38
2023-05-03T10:54:04.521Z,1243.13
2023-05-03T10:55:04.776Z,1237.50
2023-05-03T10:56:04.537Z,1333.13
2023-05-03T10:57:04.588Z,1288.13
2023-05-03T10:58:04.547Z,1181.25
2023-05-03T10:59:04.553Z,1170.00
2023-05-03T11:00:04.562Z,1147.50
2023-05-03T11:01:04.633Z,1170.00
2023-05-03T11:02:04.676Z,1141.88
2023-05-03T11:03:04.616Z,1254.38
2023-05-03T11:04:04.600Z,1288.13
2023-05-03T11:05:04.934Z,1305.00
2023-05-03T11:06:04.660Z,1293.75
2023-05-03T11:07:04.642Z,1333.13
2023-05-03T11:08:04.608Z,1293.75
2023-05-03T11:09:04.625Z,1293.75
2023-05-03T11:10:04.624Z,1321.88
2023-05-03T11:11:04.623Z,1344.38
2023-05-03T11:12:04.651Z,1372.50
2023-05-03T11:13:04.727Z,1361.25
2023-05-03T11:14:04.661Z,1355.63
2023-05-03T11:15:04.903Z,1361.25
2023-05-03T11:16:04.728Z,1361.25
2023-05-03T11:17:04.677Z,1321.88
2023-05-03T11:18:04.706Z,1366.88
2023-05-03T11:19:04.687Z,1344.38
2023-05-03T11:20:04.836Z,1333.13
2023-05-03T11:21:04.696Z,1344.38
2023-05-03T11:22:04.702Z,1338.75
2023-05-03T11:23:04.733Z,1333.13
2023-05-03T11:24:04.727Z,1276.88
2023-05-03T11:25:04.974Z,1276.88
2023-05-03T11:26:04.725Z,1282.50
2023-05-03T11:27:08.201Z,1282.50
2023-05-03T11:28:04.753Z,1293.75
2023-05-03T11:29:04.823Z,1271.25
2023-05-03T11:30:04.757Z,1293.75
2023-05-03T11:31:04.762Z,1288.13
2023-05-03T11:32:04.820Z,1271.25
2023-05-03T11:33:04.832Z,1288.13
2023-05-03T11:34:04.781Z,1276.88
2023-05-03T11:35:05.033Z,1271.25
2023-05-03T11:36:04.842Z,1282.50
2023-05-03T11:37:04.811Z,1248.75
2023-05-03T11:38:04.837Z,1254.38
2023-05-03T11:39:04.820Z,1276.88
2023-05-03T11:40:04.836Z,1299.38
2023-05-03T11:41:04.846Z,1265.63
2023-05-03T11:42:04.910Z,1215.00
2023-05-03T11:43:04.877Z,1192.50
2023-05-03T11:44:16.095Z,1057.50
2023-05-03T11:45:05.522Z,911.25
2023-05-03T11:46:05.001Z,748.13
2023-05-03T11:47:05.043Z,675.00
2023-05-03T11:48:04.912Z,658.13
2023-05-03T11:49:04.942Z,652.50
2023-05-03T11:50:04.911Z,641.25
2023-05-03T11:51:04.912Z,635.63
2023-05-03T11:52:04.940Z,630.00
2023-05-03T11:53:04.936Z,624.38
2023-05-03T11:54:17.036Z,618.75
2023-05-03T11:55:05.514Z,613.13
2023-05-03T11:56:04.947Z,607.50
2023-05-03T11:57:04.976Z,601.88
2023-05-03T11:58:04.963Z,596.25
2023-05-03T11:59:04.990Z,601.88
2023-05-03T12:00:04.985Z,596.25
2023-05-03T12:01:09.098Z,590.63
2023-05-03T12:33:28.461Z,466.88
2023-05-03T12:36:31.937Z,438.75
2023-05-03T12:37:33.362Z,433.13
2023-05-03T20:48:49.788Z,0.00
2023-05-03T20:49:47.993Z,0.00
2023-05-03T20:50:47.868Z,0.00
2023-05-03T20:51:46.840Z,0.00
2023-05-03T20:52:46.644Z,0.00
2023-05-03T20:53:48.850Z,0.00
2023-05-03T20:54:50.097Z,0.00
2023-05-03T20:55:49.920Z,0.00
2023-05-03T20:56:47.658Z,0.00
2023-05-03T20:57:48.680Z,0.00
2023-05-03T20:58:50.872Z,0.00
2023-05-03T20:59:50.003Z,0.00
2023-05-03T21:01:14.291Z,0.00
2023-05-03T21:01:48.062Z,0.00
2023-05-03T21:02:47.390Z,0.00
2023-05-03T21:03:47.233Z,0.00
2023-05-03T21:06:48.250Z,0.00
2023-05-03T21:07:47.280Z,0.00
2023-05-03T21:08:47.478Z,0.00
2023-05-03T21:09:51.316Z,0.00
2023-05-03T21:10:45.796Z,0.00
2023-05-03T21:11:49.586Z,0.00
2023-05-03T21:13:09.956Z,0.00
2023-05-03T21:13:49.990Z,0.00
2023-05-03T21:14:46.049Z,0.00
2023-05-03T21:15:48.065Z,0.00
2023-05-03T21:16:52.991Z,0.00
2023-05-03T21:17:49.870Z,0.00
2023-05-03T21:18:48.709Z,0.00
2023-05-03T21:19:50.899Z,0.00
2023-05-03T21:20:54.471Z,0.00
2023-05-03T21:23:11.397Z,0.00
2023-05-03T21:25:51.612Z,0.00
2023-05-03T21:26:49.881Z,0.00
2023-05-03T21:27:50.914Z,0.00
2023-05-03T21:28:46.972Z,0.00
2023-05-03T21:30:10.038Z,0.00
2023-05-03T21:30:47.888Z,0.00
2023-05-03T21:31:46.683Z,0.00
2023-05-03T21:32:47.028Z,0.00
2023-05-03T21:33:45.808Z,0.00
2023-05-03T21:34:45.609Z,0.00
2023-05-03T21:35:53.707Z,0.00
2023-05-03T21:36:47.956Z,0.00
2023-05-03T21:38:48.959Z,0.00
2023-05-03T21:39:57.732Z,0.00
2023-05-03T21:40:45.436Z,0.00
2023-05-03T21:41:45.389Z,0.00
2023-05-03T21:42:45.223Z,0.00
2023-05-03T21:43:45.718Z,0.00
2023-05-03T21:44:45.528Z,0.00
2023-05-03T21:45:45.507Z,0.00
2023-05-03T21:46:45.353Z,0.00
2023-05-03T21:47:45.548Z,0.00
2023-05-03T21:48:45.194Z,0.00
2023-05-03T21:49:46.031Z,0.00
2023-05-03T21:50:45.673Z,0.00
2023-05-03T21:51:45.588Z,0.00
2023-05-03T21:52:45.323Z,0.00
2023-05-03T21:53:45.443Z,0.00
2023-05-03T21:54:46.993Z,0.00
2023-05-03T21:55:45.413Z,0.00
2023-05-03T21:56:45.069Z,0.00
2023-05-03T21:57:45.141Z,0.00
2023-05-03T21:58:45.038Z,0.00
2023-05-03T21:59:45.021Z,0.00
2023-05-03T22:00:45.022Z,0.00
2023-05-03T22:01:45.047Z,0.00
2023-05-03T22:02:45.051Z,0.00
2023-05-03T22:03:45.083Z,0.00
2023-05-03T22:04:44.947Z,0.00
2023-05-03T22:05:44.978Z,0.00
2023-05-03T22:06:44.957Z,0.00
2023-05-03T22:07:44.951Z,0.00
2023-05-03T22:08:44.895Z,0.00
2023-05-03T22:09:44.870Z,0.00
2023-05-03T22:10:44.854Z,0.00
2023-05-03T22:11:44.897Z,0.00
2023-05-03T22:12:44.849Z,0.00
2023-05-03T22:14:03.139Z,0.00
2023-05-03T22:14:44.788Z,0.00
2023-05-03T22:15:44.819Z,0.00
2023-05-03T22:16:44.758Z,0.00
2023-05-03T22:17:44.832Z,0.00
2023-05-03T22:18:44.736Z,0.00
2023-05-03T22:19:44.789Z,0.00
2023-05-03T22:20:44.694Z,0.00
2023-05-03T22:21:44.678Z,0.00
2023-05-03T22:22:44.688Z,0.00
2023-05-03T22:23:44.658Z,0.00
2023-05-03T22:24:44.637Z,0.00
2023-05-03T22:25:44.621Z,0.00
2023-05-03T22:26:44.605Z,0.00
2023-05-03T22:27:44.589Z,0.00
2023-05-03T22:28:44.573Z,0.00
2023-05-03T22:29:44.559Z,0.00
2023-05-03T22:30:44.548Z,0.00
2023-05-03T22:31:44.569Z,0.00
2023-05-03T22:32:44.560Z,0.00
2023-05-03T22:33:44.497Z,0.00
2023-05-03T22:34:45.511Z,0.00
2023-05-03T22:35:44.498Z,0.00
2023-05-03T22:36:44.454Z,0.00
2023-05-03T22:37:45.154Z,0.00
2023-05-03T22:38:44.439Z,0.00
2023-05-03T22:39:44.415Z,0.00
2023-05-03T22:40:44.404Z,0.00
2023-05-03T22:41:44.379Z,0.00
2023-05-03T22:42:44.368Z,0.00
2023-05-03T22:43:44.350Z,0.00
2023-05-03T22:44:44.343Z,0.00
2023-05-03T22:45:44.330Z,0.00
2023-05-03T22:46:44.307Z,0.00
2023-05-03T22:47:44.340Z,0.00
2023-05-03T22:48:44.279Z,0.00
2023-05-03T22:49:44.268Z,0.00
2023-05-03T22:50:44.268Z,0.00
2023-05-03T22:51:44.232Z,0.00
2023-05-03T22:52:44.217Z,0.00
2023-05-03T22:53:44.235Z,0.00
2023-05-03T22:54:44.094Z,0.00
2023-05-03T22:55:44.182Z,0.00
2023-05-03T22:56:44.173Z,0.00
2023-05-03T22:57:44.143Z,0.00
2023-05-03T22:58:44.143Z,0.00
2023-05-03T22:59:44.117Z,0.00
2023-05-03T23:00:44.099Z,0.00
2023-05-03T23:01:44.161Z,0.00
2023-05-03T23:02:44.138Z,0.00
2023-05-03T23:03:44.215Z,0.00
2023-05-03T23:04:44.039Z,0.00
2023-05-03T23:05:44.025Z,0.00
2023-05-03T23:06:44.015Z,0.00
2023-05-03T23:07:44.012Z,0.00
2023-05-03T23:08:43.990Z,0.00
2023-05-03T23:09:43.965Z,0.00
2023-05-03T23:10:43.951Z,0.00
2023-05-03T23:11:43.986Z,0.00
2023-05-03T23:12:44.011Z,0.00
2023-05-03T23:13:43.906Z,0.00
2023-05-03T23:14:43.912Z,0.00
2023-05-03T23:15:43.877Z,0.00
2023-05-03T23:16:43.888Z,0.00
2023-05-03T23:17:43.917Z,0.00
2023-05-03T23:18:43.841Z,0.00
2023-05-03T23:19:43.828Z,0.00
2023-05-03T23:20:43.818Z,0.00
2023-05-03T23:21:43.794Z,0.00
2023-05-03T23:22:43.830Z,0.00
2023-05-03T23:23:43.759Z,0.00
2023-05-03T23:24:43.745Z,0.00
2023-05-03T23:25:43.732Z,0.00
2023-05-03T23:26:43.714Z,0.00
2023-05-03T23:27:43.760Z,0.00
2023-05-03T23:28:43.691Z,0.00
2023-05-03T23:29:43.667Z,0.00
2023-05-03T23:30:43.864Z,0.00
2023-05-03T23:31:43.694Z,0.00
2023-05-03T23:32:43.637Z,0.00
2023-05-03T23:33:43.604Z,0.00
2023-05-03T23:34:43.634Z,0.00
2023-05-03T23:35:43.588Z,0.00
2023-05-03T23:36:43.604Z,0.00
2023-05-03T23:37:43.617Z,0.00
2023-05-03T23:38:43.613Z,0.00
2023-05-03T23:39:43.522Z,0.00
2023-05-03T23:40:43.522Z,0.00
2023-05-03T23:41:43.501Z,0.00
2023-05-03T23:42:43.501Z,0.00
2023-05-03T23:43:43.457Z,0.00
2023-05-03T23:44:53.852Z,0.00
2023-05-03T23:45:43.473Z,0.00
2023-05-03T23:46:43.548Z,0.00
2023-05-03T23:47:43.467Z,0.00
2023-05-03T23:48:43.383Z,0.00
2023-05-03T23:49:43.371Z,0.00
2023-05-03T23:50:43.350Z,0.00
2023-05-03T23:51:43.348Z,0.00
2023-05-03T23:52:43.323Z,0.00
2023-05-03T23:53:43.302Z,0.00
2023-05-03T23:54:43.301Z,0.00
2023-05-03T23:55:43.279Z,0.00
2023-05-03T23:56:43.261Z,0.00
2023-05-03T23:57:43.250Z,0.00
2023-05-03T23:58:43.226Z,0.00
2023-05-03T23:59:43.212Z,0.00
